Time;durP1;ratioP1;P1;durP2;ratioP2;P2;SDS_P1;SDS_P2;PMS_P1;PMS_P2;Temp;Humidity;BMP_temperature;BMP_pressure;BME280_temperature;BME280_humidity;BME280_pressure;Samples;Min_cycle;Max_cycle;Signal;HPM_P1;HPM_P2
2023/12/03 00:01:20;;;;;;;6.73;5.13;;;-1.10;99.90;;;;;;5031379;28;20631;-60
2023/12/03 00:03:47;;;;;;;6.50;5.43;;;-1.10;99.90;;;;;;5017296;28;20740;-58
2023/12/03 00:06:14;;;;;;;5.17;4.60;;;-1.10;99.90;;;;;;5014431;28;20752;-59
2023/12/03 00:08:41;;;;;;;8.93;5.80;;;-1.00;99.90;;;;;;5014966;28;20298;-59
2023/12/03 00:11:08;;;;;;;6.70;5.10;;;-1.00;99.90;;;;;;5029396;28;20202;-58
2023/12/03 00:13:35;;;;;;;5.93;5.17;;;-1.10;99.90;;;;;;5035137;28;20230;-59
2023/12/03 00:16:04;;;;;;;5.37;4.93;;;-1.10;99.90;;;;;;5020551;28;20223;-59
2023/12/03 00:18:31;;;;;;;5.90;4.73;;;-1.10;99.90;;;;;;5014634;28;20226;-58
2023/12/03 00:20:58;;;;;;;5.43;4.93;;;-1.10;99.90;;;;;;5027538;28;20746;-59
2023/12/03 00:23:25;;;;;;;6.80;5.60;;;-1.10;99.90;;;;;;5035117;28;20205;-59
2023/12/03 00:25:52;;;;;;;6.50;5.60;;;-1.10;99.90;;;;;;5021854;28;20201;-59
2023/12/03 00:28:19;;;;;;;7.43;6.50;;;-1.10;99.90;;;;;;5014401;28;20569;-59
2023/12/03 00:30:46;;;;;;;8.83;5.80;;;-1.10;99.90;;;;;;5025207;28;20204;-58
2023/12/03 00:33:14;;;;;;;6.23;5.60;;;-1.10;99.90;;;;;;5034825;28;20692;-58
2023/12/03 00:35:41;;;;;;;6.97;5.90;;;-1.10;99.90;;;;;;5023625;28;20632;-59
2023/12/03 00:38:08;;;;;;;7.40;6.40;;;-1.10;99.90;;;;;;5014047;28;20278;-58
2023/12/03 00:40:34;;;;;;;9.43;6.10;;;-1.20;99.90;;;;;;5023439;28;20221;-59
2023/12/03 00:43:01;;;;;;;6.77;6.00;;;-1.20;99.90;;;;;;5034355;28;20245;-59
2023/12/03 00:45:28;;;;;;;7.13;6.27;;;-1.20;99.90;;;;;;5034317;28;20256;-59
2023/12/03 00:47:55;;;;;;;7.00;6.27;;;-1.20;99.90;;;;;;5026304;28;20275;-59
2023/12/03 00:50:23;;;;;;;7.63;6.37;;;-1.10;99.90;;;;;;5016139;28;20221;-58
2023/12/03 00:52:50;;;;;;;8.20;6.07;;;-1.10;99.90;;;;;;5014123;28;20205;-58
2023/12/03 00:55:17;;;;;;;8.50;7.57;;;-1.20;99.90;;;;;;5014005;28;20223;-58
2023/12/03 00:57:44;;;;;;;10.40;7.30;;;-1.10;99.90;;;;;;5012329;28;20279;-59
2023/12/03 01:00:12;;;;;;;8.93;6.00;;;-1.10;99.90;;;;;;5012852;28;20256;-59
2023/12/03 01:02:39;;;;;;;7.30;6.43;;;-1.10;99.90;;;;;;5013811;28;20249;-58
2023/12/03 01:05:07;;;;;;;7.67;6.37;;;-1.20;99.90;;;;;;5013982;28;20249;-59
2023/12/03 01:07:35;;;;;;;9.23;6.80;;;-1.10;99.90;;;;;;5013555;28;20292;-59
2023/12/03 01:10:02;;;;;;;10.17;6.83;;;-1.20;99.90;;;;;;5011955;28;20385;-58
2023/12/03 01:12:29;;;;;;;8.80;7.10;;;-1.30;99.90;;;;;;5013559;28;20257;-59
2023/12/03 01:14:56;;;;;;;9.77;7.70;;;-1.30;99.90;;;;;;5013722;28;20308;-59
2023/12/03 01:17:23;;;;;;;12.53;8.47;;;-1.40;99.90;;;;;;5013266;28;20225;-59
2023/12/03 01:19:50;;;;;;;7.37;6.57;;;-1.30;99.90;;;;;;5013219;28;20201;-59
2023/12/03 01:22:17;;;;;;;7.07;6.37;;;-1.30;99.90;;;;;;5006124;28;20201;-59
2023/12/03 01:24:45;;;;;;;9.67;8.03;;;-1.30;99.90;;;;;;5013366;28;20216;-59
2023/12/03 01:27:12;;;;;;;8.37;6.87;;;-1.30;99.90;;;;;;5012357;28;20231;-58
2023/12/03 01:29:39;;;;;;;10.20;7.57;;;-1.30;99.90;;;;;;5013642;28;20210;-59
2023/12/03 01:32:07;;;;;;;9.97;7.43;;;-1.30;99.90;;;;;;5030647;28;20221;-58
2023/12/03 01:34:34;;;;;;;10.87;7.53;;;-1.30;99.90;;;;;;5012184;28;20253;-59
2023/12/03 01:37:01;;;;;;;10.63;7.57;;;-1.30;99.90;;;;;;5012601;28;20225;-58
2023/12/03 01:39:28;;;;;;;9.60;6.93;;;-1.30;99.90;;;;;;5012902;28;20256;-58
2023/12/03 01:41:56;;;;;;;10.13;7.73;;;-1.30;99.90;;;;;;5020679;28;20257;-59
2023/12/03 01:44:23;;;;;;;9.07;6.70;;;-1.40;99.90;;;;;;5013075;28;20564;-58
2023/12/03 01:46:51;;;;;;;8.87;7.27;;;-1.40;99.90;;;;;;5011840;28;20271;-58
2023/12/03 01:49:18;;;;;;;8.77;6.90;;;-1.40;99.90;;;;;;5012980;28;20293;-59
2023/12/03 01:51:48;;;;;;;9.47;7.30;;;-1.40;99.90;;;;;;5028634;28;20257;-59
2023/12/03 01:54:15;;;;;;;7.90;6.97;;;-1.40;99.90;;;;;;5032661;28;20632;-58
2023/12/03 01:56:42;;;;;;;11.87;7.37;;;-1.50;99.90;;;;;;5032228;28;20280;-59
2023/12/03 01:59:11;;;;;;;10.17;7.90;;;-1.50;99.90;;;;;;5015723;28;20562;-58
2023/12/03 02:01:38;;;;;;;12.50;7.80;;;-1.50;99.90;;;;;;5027534;28;20200;-59
2023/12/03 02:04:05;;;;;;;12.53;7.30;;;-1.50;99.90;;;;;;5032549;28;20200;-59
2023/12/03 02:06:32;;;;;;;10.10;7.47;;;-1.50;99.90;;;;;;5032027;28;20246;-59
2023/12/03 02:08:59;;;;;;;10.77;8.30;;;-1.60;99.90;;;;;;5032373;28;20203;-59
2023/12/03 02:11:26;;;;;;;8.60;6.70;;;-1.60;99.90;;;;;;5021729;28;20205;-59
2023/12/03 02:13:53;;;;;;;9.50;6.60;;;-1.50;99.90;;;;;;5012655;28;20205;-58
2023/12/03 02:16:22;;;;;;;11.53;6.93;;;-1.60;99.90;;;;;;5012239;28;20277;-58
2023/12/03 02:18:49;;;;;;;9.70;7.37;;;-1.60;99.90;;;;;;5012462;28;20285;-59
2023/12/03 02:21:16;;;;;;;10.37;6.97;;;-1.60;99.90;;;;;;5022665;28;20747;-58
2023/12/03 02:23:44;;;;;;;13.10;8.47;;;-1.60;99.90;;;;;;5016483;28;20197;-59
2023/12/03 02:26:11;;;;;;;14.00;8.40;;;-1.60;99.90;;;;;;5012361;28;20201;-59
2023/12/03 02:28:38;;;;;;;12.47;8.83;;;-1.60;99.90;;;;;;5020027;28;20257;-58
2023/12/03 02:31:05;;;;;;;10.93;8.17;;;-1.60;99.90;;;;;;5022097;28;20212;-60
2023/12/03 02:33:32;;;;;;;13.07;8.50;;;-1.60;99.90;;;;;;5031954;28;20204;-59
2023/12/03 02:36:01;;;;;;;10.40;7.57;;;-1.30;99.90;;;;;;5019072;28;20222;-58
2023/12/03 02:38:28;;;;;;;13.43;8.93;;;-1.60;99.90;;;;;;5011552;28;20229;-59
2023/12/03 02:40:58;;;;;;;11.33;8.80;;;-1.60;99.90;;;;;;5018860;28;20209;-59
2023/12/03 02:43:25;;;;;;;11.67;8.40;;;-1.60;99.90;;;;;;5031847;28;20205;-59
2023/12/03 02:45:52;;;;;;;10.10;7.57;;;-1.60;99.90;;;;;;5031843;28;20287;-59
2023/12/03 02:48:19;;;;;;;16.07;8.53;;;-1.60;99.90;;;;;;5019323;28;20225;-58
2023/12/03 02:50:46;;;;;;;12.07;8.30;;;-1.60;99.90;;;;;;5015335;28;20197;-58
2023/12/03 02:53:13;;;;;;;14.43;9.17;;;-1.60;99.90;;;;;;5030621;28;20195;-58
2023/12/03 02:55:40;;;;;;;10.20;7.87;;;-1.60;99.90;;;;;;5031618;28;20650;-58
2023/12/03 02:58:09;;;;;;;12.70;8.53;;;-1.70;99.90;;;;;;5021181;28;20239;-58
2023/12/03 03:00:36;;;;;;;12.37;8.17;;;-1.60;99.90;;;;;;5009813;28;20205;-59
2023/12/03 03:03:03;;;;;;;11.00;8.43;;;-1.60;99.90;;;;;;5018666;28;20198;-59
2023/12/03 03:05:30;;;;;;;10.00;7.50;;;-1.60;99.90;;;;;;5011612;28;20599;-59
2023/12/03 03:07:57;;;;;;;11.43;8.53;;;-1.60;99.90;;;;;;5005163;28;20270;-58
2023/12/03 03:10:24;;;;;;;9.20;7.50;;;-1.60;99.90;;;;;;5007860;28;20262;-58
2023/12/03 03:12:51;;;;;;;11.03;7.63;;;-1.70;99.90;;;;;;5006756;28;20263;-58
2023/12/03 03:15:19;;;;;;;10.53;6.60;;;-1.70;99.90;;;;;;5007521;28;20212;-58
2023/12/03 03:17:46;;;;;;;7.67;6.70;;;-1.70;99.90;;;;;;5010403;28;20221;-59
2023/12/03 03:20:13;;;;;;;9.87;7.33;;;-1.80;99.90;;;;;;5012712;28;20204;-58
2023/12/03 03:22:40;;;;;;;12.53;8.93;;;-1.70;99.90;;;;;;5019207;28;20219;-58
2023/12/03 03:25:08;;;;;;;8.70;7.00;;;-1.80;99.90;;;;;;5012415;28;20205;-58
2023/12/03 03:27:35;;;;;;;10.67;7.33;;;-1.90;99.90;;;;;;5004479;28;20225;-58
2023/12/03 03:30:01;;;;;;;10.50;7.93;;;-1.90;99.90;;;;;;4995242;28;20223;-59
2023/12/03 03:32:30;;;;;;;13.00;8.37;;;-1.90;99.90;;;;;;5012769;28;20210;-59
2023/12/03 03:34:57;;;;;;;10.83;8.03;;;-2.00;99.90;;;;;;5012835;28;20258;-58
2023/12/03 03:37:24;;;;;;;12.10;9.20;;;-2.00;99.90;;;;;;5013832;28;20289;-58
2023/12/03 03:39:51;;;;;;;14.23;8.90;;;-2.10;99.90;;;;;;5015071;28;20258;-59
2023/12/03 03:42:18;;;;;;;9.97;7.47;;;-2.10;99.90;;;;;;5015158;28;20198;-58
2023/12/03 03:44:45;;;;;;;9.73;7.67;;;-2.10;99.90;;;;;;5019841;28;20249;-59
2023/12/03 03:47:13;;;;;;;10.73;7.40;;;-2.10;99.90;;;;;;5014674;28;20640;-58
2023/12/03 03:49:42;;;;;;;10.97;7.53;;;-2.20;99.90;;;;;;5012322;28;20301;-58
2023/12/03 03:52:09;;;;;;;12.03;8.77;;;-2.10;99.90;;;;;;5014756;28;20623;-58
2023/12/03 03:54:41;;;;;;;12.30;8.50;;;-2.20;99.90;;;;;;5014816;28;20197;-58
2023/12/03 03:57:08;;;;;;;12.73;7.93;;;-2.20;99.90;;;;;;5012707;28;20824;-58
2023/12/03 03:59:35;;;;;;;12.10;8.40;;;-2.20;99.90;;;;;;5014274;28;20205;-59
2023/12/03 04:02:02;;;;;;;11.87;8.10;;;-2.30;99.90;;;;;;5028549;28;20237;-58
2023/12/03 04:04:29;;;;;;;14.07;9.43;;;-2.40;99.90;;;;;;5014766;28;20201;-59
2023/12/03 04:06:58;;;;;;;10.20;9.17;;;-2.40;99.90;;;;;;5013773;28;20276;-58
2023/12/03 04:09:25;;;;;;;12.77;9.20;;;-2.50;99.90;;;;;;5014453;28;20200;-58
2023/12/03 04:11:53;;;;;;;10.83;8.20;;;-2.40;99.90;;;;;;5014644;28;20210;-58
2023/12/03 04:14:20;;;;;;;14.73;8.77;;;-2.50;99.90;;;;;;5014674;28;20202;-58
2023/12/03 04:16:47;;;;;;;11.50;8.23;;;-2.50;99.90;;;;;;5007232;28;20601;-58
2023/12/03 04:19:14;;;;;;;13.63;9.60;;;-2.50;99.90;;;;;;5022301;28;20255;-59
2023/12/03 04:21:42;;;;;;;17.07;8.90;;;-2.60;99.90;;;;;;5014251;28;20234;-58
2023/12/03 04:24:11;;;;;;;13.13;8.97;;;-2.70;99.90;;;;;;5014227;28;20209;-58
2023/12/03 04:26:41;;;;;;;12.20;7.53;;;-2.70;99.90;;;;;;5014055;28;20198;-58
2023/12/03 04:29:08;;;;;;;12.80;8.00;;;-2.80;99.90;;;;;;5014510;28;20216;-58
2023/12/03 04:31:35;;;;;;;11.17;7.57;;;-2.80;99.90;;;;;;5014154;28;20208;-59
2023/12/03 04:34:03;;;;;;;12.23;8.27;;;-2.80;99.90;;;;;;5014134;28;20210;-59
2023/12/03 04:36:30;;;;;;;12.10;8.23;;;-2.90;99.90;;;;;;5020993;28;20220;-58
2023/12/03 04:38:57;;;;;;;12.67;9.33;;;-3.00;99.90;;;;;;5013610;28;20213;-58
2023/12/03 04:41:34;;;;;;;14.13;9.93;;;-3.00;99.90;;;;;;5013980;28;20693;-58
2023/12/03 04:44:01;;;;;;;11.10;8.50;;;-3.10;99.90;;;;;;5013831;28;20201;-58
2023/12/03 04:46:28;;;;;;;11.73;8.50;;;-3.10;99.90;;;;;;5013620;28;20276;-58
2023/12/03 04:48:55;;;;;;;15.93;9.00;;;-3.10;99.90;;;;;;5013699;28;20748;-58
2023/12/03 04:51:22;;;;;;;13.60;10.60;;;-3.10;99.90;;;;;;5013083;28;20680;-58
2023/12/03 04:53:49;;;;;;;12.87;8.93;;;-3.20;99.90;;;;;;5022126;28;20203;-58
2023/12/03 04:56:17;;;;;;;15.57;9.17;;;-3.20;99.90;;;;;;5005232;28;20212;-58
2023/12/03 04:58:45;;;;;;;12.23;8.37;;;-3.30;99.90;;;;;;5013403;28;20272;-59
2023/12/03 05:01:13;;;;;;;13.57;8.40;;;-3.30;99.90;;;;;;5022813;28;20212;-59
2023/12/03 05:03:40;;;;;;;15.53;9.20;;;-3.30;99.90;;;;;;5025644;28;20262;-59
2023/12/03 05:06:09;;;;;;;17.43;10.67;;;-3.40;99.90;;;;;;5019135;28;20627;-59
2023/12/03 05:08:36;;;;;;;15.43;9.47;;;-3.40;99.90;;;;;;5013068;28;20226;-58
2023/12/03 05:11:07;;;;;;;16.87;10.00;;;-3.40;99.90;;;;;;5016510;28;20661;-58
2023/12/03 05:13:34;;;;;;;14.13;9.70;;;-3.40;99.90;;;;;;5012639;28;20270;-58
2023/12/03 05:16:04;;;;;;;12.90;9.50;;;-3.50;99.90;;;;;;5013238;28;20224;-58
2023/12/03 05:18:31;;;;;;;15.10;10.27;;;-3.50;99.90;;;;;;5011586;28;20223;-58
2023/12/03 05:20:59;;;;;;;16.10;10.50;;;-3.50;99.90;;;;;;5013152;28;20214;-58
2023/12/03 05:23:26;;;;;;;17.17;10.17;;;-3.50;99.90;;;;;;5012998;28;20840;-59
2023/12/03 05:25:53;;;;;;;13.37;10.40;;;-3.60;99.90;;;;;;5013247;28;20197;-58
2023/12/03 05:28:21;;;;;;;20.87;11.43;;;-3.60;99.90;;;;;;5012731;28;20280;-58
2023/12/03 05:30:48;;;;;;;13.90;10.53;;;-3.60;99.90;;;;;;5012647;28;20209;-58
2023/12/03 05:33:16;;;;;;;16.67;11.53;;;-3.70;99.90;;;;;;5012421;28;20627;-58
2023/12/03 05:35:43;;;;;;;14.77;10.87;;;-3.70;99.90;;;;;;5012322;28;20262;-58
2023/12/03 05:38:10;;;;;;;17.90;12.33;;;-3.70;99.90;;;;;;5004478;28;20300;-58
2023/12/03 05:40:37;;;;;;;15.80;11.10;;;-3.70;99.90;;;;;;5012522;28;20252;-59
2023/12/03 05:43:04;;;;;;;20.70;11.80;;;-3.70;99.90;;;;;;5010241;28;20278;-59
2023/12/03 05:45:31;;;;;;;15.70;10.60;;;-3.70;99.90;;;;;;5011824;28;20211;-58
2023/12/03 05:47:58;;;;;;;16.00;11.03;;;-3.70;99.90;;;;;;5011640;28;20290;-58
2023/12/03 05:50:26;;;;;;;15.63;11.87;;;-3.70;99.90;;;;;;5013134;28;20255;-58
2023/12/03 05:52:53;;;;;;;18.33;11.30;;;-3.80;99.90;;;;;;5011007;28;20262;-58
2023/12/03 05:55:21;;;;;;;16.67;11.40;;;-3.80;99.90;;;;;;5013140;28;20724;-58
2023/12/03 05:57:47;;;;;;;16.30;10.97;;;-3.90;99.90;;;;;;5015579;28;20255;-58
2023/12/03 06:00:15;;;;;;;16.70;10.77;;;-3.90;99.90;;;;;;5010721;28;20203;-58
2023/12/03 06:02:42;;;;;;;11.93;9.70;;;-4.00;99.90;;;;;;5005940;28;20656;-58
2023/12/03 06:05:09;;;;;;;14.67;9.87;;;-4.00;99.90;;;;;;5011620;28;20200;-58
2023/12/03 06:07:38;;;;;;;15.43;10.37;;;-4.10;99.90;;;;;;5010730;28;20873;-58
2023/12/03 06:10:06;;;;;;;17.83;11.43;;;-4.10;99.90;;;;;;4997131;28;20253;-59
2023/12/03 06:12:33;;;;;;;15.23;10.57;;;-4.10;99.90;;;;;;5007240;28;20541;-58
2023/12/03 06:15:00;;;;;;;16.60;10.60;;;-4.10;99.90;;;;;;5012449;28;20272;-58
2023/12/03 06:17:27;;;;;;;15.70;10.83;;;-4.10;99.90;;;;;;5011611;28;20220;-58
2023/12/03 06:19:54;;;;;;;18.10;10.60;;;-4.10;99.90;;;;;;5012301;28;20250;-58
2023/12/03 06:22:21;;;;;;;18.90;12.90;;;-4.10;99.90;;;;;;5011569;28;20197;-58
2023/12/03 06:24:50;;;;;;;17.97;13.27;;;-4.10;99.90;;;;;;5012287;28;20250;-58
2023/12/03 06:27:16;;;;;;;21.13;13.93;;;-4.10;99.90;;;;;;5011413;28;20435;-60
2023/12/03 06:29:43;;;;;;;20.30;14.07;;;-4.10;99.90;;;;;;5011973;28;20205;-58
2023/12/03 06:32:10;;;;;;;21.07;13.67;;;-4.10;99.90;;;;;;5011840;28;20559;-58
2023/12/03 06:34:37;;;;;;;23.60;12.97;;;-4.20;99.90;;;;;;5012206;28;20247;-58
2023/12/03 06:37:04;;;;;;;24.93;13.90;;;-4.20;99.90;;;;;;5007190;28;20654;-58
2023/12/03 06:39:31;;;;;;;20.90;13.30;;;-4.20;99.90;;;;;;5012045;28;20668;-58
2023/12/03 06:41:59;;;;;;;20.77;13.37;;;-4.20;99.90;;;;;;5012025;28;20857;-58
2023/12/03 06:44:26;;;;;;;19.23;12.77;;;-4.20;99.90;;;;;;5011938;28;20986;-58
2023/12/03 06:46:53;;;;;;;23.03;13.13;;;-4.20;99.90;;;;;;5011310;28;20463;-58
2023/12/03 06:49:20;;;;;;;21.53;12.80;;;-4.10;99.90;;;;;;5003978;28;20474;-59
2023/12/03 06:51:47;;;;;;;19.10;12.60;;;-4.00;99.90;;;;;;5011759;28;20498;-58
2023/12/03 06:54:14;;;;;;;17.60;11.50;;;-4.10;99.90;;;;;;5011460;28;20275;-58
2023/12/03 06:56:43;;;;;;;14.83;9.90;;;-4.10;99.90;;;;;;5015502;28;20733;-58
2023/12/03 06:59:11;;;;;;;15.00;10.73;;;-4.20;99.90;;;;;;5012650;28;20506;-58
2023/12/03 07:01:38;;;;;;;14.50;10.97;;;-4.30;99.90;;;;;;5011710;28;20440;-58
2023/12/03 07:04:05;;;;;;;18.90;11.97;;;-4.40;99.90;;;;;;5011567;28;20823;-58
2023/12/03 07:06:32;;;;;;;18.70;11.57;;;-4.40;99.90;;;;;;5007921;28;20939;-58
2023/12/03 07:08:59;;;;;;;19.10;11.17;;;-4.40;99.90;;;;;;5003379;28;20446;-58
2023/12/03 07:11:29;;;;;;;23.87;12.33;;;-4.60;99.90;;;;;;5011289;28;20231;-58
2023/12/03 07:13:56;;;;;;;15.53;9.43;;;-4.60;99.90;;;;;;5016406;28;20950;-59
2023/12/03 07:16:24;;;;;;;17.90;11.00;;;-4.70;99.90;;;;;;5008020;28;20444;-58
2023/12/03 07:18:51;;;;;;;18.97;11.20;;;-4.80;99.90;;;;;;5011535;28;20451;-58
2023/12/03 07:21:18;;;;;;;18.57;10.67;;;-4.80;99.90;;;;;;5011637;28;20478;-58
2023/12/03 07:23:45;;;;;;;16.63;10.17;;;-4.90;99.90;;;;;;5011523;28;20942;-58
2023/12/03 07:26:12;;;;;;;17.30;9.93;;;-5.00;99.90;;;;;;5006268;28;20502;-58
2023/12/03 07:28:39;;;;;;;15.70;10.13;;;-5.10;99.90;;;;;;5010800;28;20888;-58
2023/12/03 07:31:07;;;;;;;16.70;10.90;;;-5.10;99.90;;;;;;5009520;28;20439;-58
2023/12/03 07:33:35;;;;;;;17.00;10.70;;;-5.10;99.90;;;;;;5011112;28;20947;-58
2023/12/03 07:36:02;;;;;;;16.30;10.37;;;-5.10;99.90;;;;;;5008569;28;20443;-58
2023/12/03 07:38:29;;;;;;;14.83;11.00;;;-5.10;99.90;;;;;;5010666;28;21048;-59
2023/12/03 07:40:56;;;;;;;21.13;11.10;;;-5.00;99.90;;;;;;5011356;28;20499;-58
2023/12/03 07:43:23;;;;;;;20.53;12.30;;;-4.90;99.90;;;;;;5002406;28;20439;-58
2023/12/03 07:45:50;;;;;;;17.37;10.20;;;-4.90;99.90;;;;;;5011792;28;20474;-58
2023/12/03 07:48:17;;;;;;;20.33;10.67;;;-5.00;99.90;;;;;;5009964;28;20533;-58
2023/12/03 07:50:46;;;;;;;15.77;9.80;;;-5.00;99.90;;;;;;5011331;28;20814;-58
2023/12/03 07:53:13;;;;;;;14.60;10.10;;;-4.90;99.90;;;;;;5011297;28;20447;-58
2023/12/03 07:55:40;;;;;;;14.43;9.43;;;-4.90;99.90;;;;;;5011089;28;20443;-58
2023/12/03 07:58:07;;;;;;;19.45;12.25;;;-4.80;99.90;;;;;;4998933;28;20483;-58
2023/12/03 08:00:34;;;;;;;15.07;10.17;;;-4.80;99.90;;;;;;5005097;28;20201;-58
2023/12/03 08:03:00;;;;;;;17.67;10.87;;;-4.70;99.90;;;;;;5007135;28;20490;-58
2023/12/03 08:05:27;;;;;;;15.63;10.50;;;-4.60;99.90;;;;;;5003446;28;20511;-65
2023/12/03 08:07:56;;;;;;;17.20;10.93;;;-4.60;99.90;;;;;;5010372;28;21033;-63
2023/12/03 08:10:23;;;;;;;17.77;12.30;;;-4.40;99.90;;;;;;5014464;28;20440;-63
2023/12/03 08:12:50;;;;;;;19.80;12.40;;;-4.40;99.90;;;;;;5014254;28;20434;-59
2023/12/03 08:15:17;;;;;;;19.40;12.57;;;-4.20;99.90;;;;;;5012480;28;20462;-60
2023/12/03 08:17:44;;;;;;;21.97;13.00;;;-4.10;99.90;;;;;;5005810;28;20565;-60
2023/12/03 08:20:12;;;;;;;23.57;14.30;;;-4.00;99.90;;;;;;5014222;28;21002;-64
2023/12/03 08:22:40;;;;;;;22.00;14.20;;;-3.90;99.90;;;;;;5014212;28;20496;-65
2023/12/03 08:25:09;;;;;;;19.07;13.03;;;-3.80;99.90;;;;;;5013575;28;20465;-65
2023/12/03 08:27:36;;;;;;;18.67;12.77;;;-3.70;99.90;;;;;;5013838;28;20463;-60
2023/12/03 08:30:03;;;;;;;20.70;13.57;;;-3.50;99.90;;;;;;5014153;28;20452;-65
2023/12/03 08:32:30;;;;;;;23.33;13.47;;;-3.50;99.90;;;;;;5014050;28;20815;-64
2023/12/03 08:34:57;;;;;;;20.07;13.93;;;-3.30;99.90;;;;;;5013300;28;20443;-65
2023/12/03 08:37:24;;;;;;;17.83;13.23;;;-3.20;99.90;;;;;;5013451;28;20921;-65
2023/12/03 08:39:51;;;;;;;18.70;12.30;;;-3.20;99.90;;;;;;5012477;28;20875;-65
2023/12/03 08:42:19;;;;;;;15.63;11.83;;;-3.10;99.90;;;;;;5013820;28;20284;-66
2023/12/03 08:44:46;;;;;;;18.77;11.57;;;-3.00;99.90;;;;;;5013464;28;20204;-65
2023/12/03 08:47:14;;;;;;;19.53;11.20;;;-2.80;99.90;;;;;;5013281;28;20783;-65
2023/12/03 08:49:41;;;;;;;15.40;11.47;;;-2.70;99.90;;;;;;5013556;28;20205;-65
2023/12/03 08:52:08;;;;;;;20.40;11.07;;;-2.50;99.90;;;;;;5013790;28;20300;-64
2023/12/03 08:54:35;;;;;;;18.40;11.80;;;-2.30;99.90;;;;;;5010665;28;20291;-64
2023/12/03 08:57:02;;;;;;;19.83;11.93;;;-2.20;99.90;;;;;;5009668;28;20275;-64
2023/12/03 08:59:31;;;;;;;20.47;12.67;;;-2.10;99.90;;;;;;5006928;28;20291;-67
2023/12/03 09:01:58;;;;;;;18.20;12.23;;;-2.10;99.90;;;;;;5013585;28;20204;-64
2023/12/03 09:04:25;;;;;;;18.30;11.57;;;-2.00;99.90;;;;;;5013160;28;20247;-61
2023/12/03 09:06:52;;;;;;;18.10;12.37;;;-1.70;99.90;;;;;;5018034;28;20281;-61
2023/12/03 09:09:19;;;;;;;18.40;12.27;;;-1.60;99.90;;;;;;5013487;28;20202;-61
2023/12/03 09:11:46;;;;;;;21.02;13.15;;;-1.20;99.90;;;;;;5012486;28;20443;-62
2023/12/03 09:14:13;;;;;;;13.63;10.93;;;-1.10;99.90;;;;;;5013345;28;20205;-64
2023/12/03 09:16:45;;;;;;;12.93;9.90;;;-1.20;99.90;;;;;;5007205;28;20206;-63
2023/12/03 09:19:12;;;;;;;16.93;11.73;;;-1.20;99.90;;;;;;5011189;28;20291;-63
2023/12/03 09:21:39;;;;;;;15.17;10.43;;;-1.30;99.90;;;;;;5013284;28;20206;-64
2023/12/03 09:24:06;;;;;;;20.87;11.77;;;-1.30;99.90;;;;;;5013639;28;20207;-63
2023/12/03 09:26:33;;;;;;;15.37;9.70;;;-1.30;99.90;;;;;;5012811;28;20237;-63
2023/12/03 09:29:00;;;;;;;17.37;10.20;;;-1.40;99.90;;;;;;5013035;28;20591;-64
2023/12/03 09:31:28;;;;;;;12.77;9.17;;;-1.40;99.90;;;;;;5011556;28;20290;-63
2023/12/03 09:33:56;;;;;;;10.13;7.20;;;-1.40;99.90;;;;;;5012903;28;20282;-63
2023/12/03 09:36:23;;;;;;;9.00;6.87;;;-1.20;99.90;;;;;;5004170;28;20228;-64
2023/12/03 09:38:50;;;;;;;8.87;6.20;;;-1.20;99.90;;;;;;5012782;28;20252;-62
2023/12/03 09:41:20;;;;;;;12.53;8.00;;;-1.20;99.90;;;;;;5012996;28;20214;-64
2023/12/03 09:43:51;;;;;;;7.00;6.30;;;-1.10;99.90;;;;;;5013023;28;20273;-64
2023/12/03 09:46:18;;;;;;;9.37;7.07;;;-1.10;99.90;;;;;;5012088;28;20750;-60
2023/12/03 09:48:45;;;;;;;14.33;10.30;;;-1.10;99.90;;;;;;5004257;28;20272;-63
2023/12/03 09:51:14;;;;;;;10.53;8.37;;;-1.10;99.90;;;;;;5013009;28;20200;-64
2023/12/03 09:53:44;;;;;;;9.13;7.73;;;-1.10;99.90;;;;;;5012558;28;20578;-63
2023/12/03 09:56:12;;;;;;;11.63;7.63;;;-1.10;99.90;;;;;;5013582;28;20640;-63
2023/12/03 09:58:39;;;;;;;13.90;9.40;;;-1.00;99.90;;;;;;5012346;28;20313;-64
2023/12/03 10:01:07;;;;;;;13.17;8.27;;;-1.00;99.90;;;;;;5013024;28;20200;-63
2023/12/03 10:03:34;;;;;;;10.20;8.03;;;-0.90;99.90;;;;;;5007270;28;20270;-63
2023/12/03 10:06:01;;;;;;;15.87;9.33;;;-0.70;99.90;;;;;;5010097;28;20199;-64
2023/12/03 10:08:32;;;;;;;11.90;8.60;;;-0.60;99.90;;;;;;5012840;28;20259;-63
2023/12/03 10:11:02;;;;;;;14.33;9.37;;;0.00;99.90;;;;;;5013228;28;20251;-63
2023/12/03 10:13:30;;;;;;;13.53;9.17;;;0.40;99.90;;;;;;5013466;28;20207;-64
2023/12/03 10:15:57;;;;;;;11.83;9.10;;;0.80;99.90;;;;;;5012648;28;20200;-64
2023/12/03 10:18:25;;;;;;;10.10;8.83;;;1.40;99.90;;;;;;5011717;28;20224;-63
2023/12/03 10:21:06;;;;;;;11.27;7.87;;;2.00;99.90;;;;;;5012450;28;20196;-61
2023/12/03 10:23:34;;;;;;;9.97;7.30;;;2.40;99.90;;;;;;5012350;28;20291;-63
2023/12/03 10:26:11;;;;;;;10.67;7.73;;;2.70;99.90;;;;;;5011894;28;20738;-66
2023/12/03 10:28:38;;;;;;;10.93;7.83;;;2.80;99.90;;;;;;5011436;28;20623;-68
2023/12/03 10:31:06;;;;;;;11.17;8.90;;;2.50;99.90;;;;;;4991692;28;20213;-65
2023/12/03 10:33:33;;;;;;;9.80;7.50;;;2.30;99.90;;;;;;5006472;28;20280;-61
2023/12/03 10:36:04;;;;;;;9.60;7.67;;;2.00;99.90;;;;;;4993741;28;20572;-66
2023/12/03 10:38:38;;;;;;;10.43;8.03;;;1.90;99.90;;;;;;5014625;28;20311;-61
2023/12/03 10:41:07;;;;;;;9.47;8.20;;;2.00;99.90;;;;;;5011657;28;20263;-67
2023/12/03 10:43:36;;;;;;;14.00;7.10;;;1.70;99.90;;;;;;5012015;28;20208;-66
2023/12/03 10:46:05;;;;;;;7.45;6.47;;;1.60;99.90;;;;;;5011351;28;20489;-60
2023/12/03 10:48:34;;;;;;;6.47;5.57;;;1.70;99.90;;;;;;5010650;28;20764;-60
2023/12/03 10:51:05;;;;;;;7.47;5.83;;;1.80;99.90;;;;;;5010866;28;20748;-60
2023/12/03 10:53:33;;;;;;;6.50;5.17;;;1.90;99.90;;;;;;5011644;28;20299;-60
2023/12/03 10:56:04;;;;;;;6.70;5.67;;;2.20;99.90;;;;;;5011581;28;20275;-61
2023/12/03 10:58:32;;;;;;;7.40;5.27;;;2.30;99.90;;;;;;5011421;28;20316;-60
2023/12/03 11:01:05;;;;;;;6.93;6.23;;;2.20;99.90;;;;;;5011560;28;20633;-61
2023/12/03 11:03:47;;;;;;;5.93;5.30;;;2.30;99.90;;;;;;5011756;28;20198;-61
2023/12/03 11:06:18;;;;;;;6.20;5.67;;;2.10;99.90;;;;;;5011486;28;20217;-60
2023/12/03 11:08:47;;;;;;;6.87;5.10;;;2.20;99.90;;;;;;5011522;28;20716;-60
2023/12/03 11:11:15;;;;;;;6.50;5.80;;;2.30;99.90;;;;;;5011524;28;20739;-60
2023/12/03 11:13:44;;;;;;;7.83;5.83;;;2.50;99.90;;;;;;5011502;28;20209;-60
2023/12/03 11:16:13;;;;;;;9.13;7.47;;;2.60;99.90;;;;;;5011420;28;20200;-61
2023/12/03 11:18:44;;;;;;;6.13;5.53;;;2.60;99.90;;;;;;5010958;28;21076;-61
2023/12/03 11:21:16;;;;;;;9.83;5.87;;;2.90;99.90;;;;;;5011673;28;20213;-61
2023/12/03 11:23:57;;;;;;;6.77;6.03;;;3.00;99.90;;;;;;5010857;28;20205;-61
2023/12/03 11:26:27;;;;;;;9.00;6.30;;;2.80;99.90;;;;;;5011189;28;20284;-61
2023/12/03 11:28:54;;;;;;;11.87;5.87;;;2.90;99.90;;;;;;5011115;28;20279;-61
2023/12/03 11:31:21;;;;;;;9.00;6.43;;;2.90;99.90;;;;;;5011179;28;20575;-61
2023/12/03 11:33:52;;;;;;;8.30;7.13;;;2.80;99.90;;;;;;5011475;28;20202;-60
2023/12/03 11:36:20;;;;;;;7.80;5.93;;;2.70;99.90;;;;;;5002922;28;20208;-61
2023/12/03 11:38:48;;;;;;;6.90;5.43;;;2.60;99.90;;;;;;5010560;28;20223;-61
2023/12/03 11:41:15;;;;;;;12.17;6.73;;;2.20;99.90;;;;;;5010325;28;20232;-60
2023/12/03 11:43:43;;;;;;;6.67;5.70;;;2.30;99.90;;;;;;5014942;28;20206;-60
2023/12/03 11:46:10;;;;;;;7.37;5.87;;;2.30;99.90;;;;;;5015208;28;20204;-61
2023/12/03 11:48:38;;;;;;;8.87;6.80;;;2.30;99.90;;;;;;5014886;28;20220;-61
2023/12/03 11:51:08;;;;;;;7.47;6.53;;;2.10;99.90;;;;;;5013985;28;20623;-60
2023/12/03 11:53:44;;;;;;;7.87;6.40;;;2.20;99.90;;;;;;5007392;28;20206;-61
2023/12/03 11:56:12;;;;;;;11.27;8.37;;;2.20;99.90;;;;;;5014730;28;20739;-61
2023/12/03 11:58:39;;;;;;;11.40;6.50;;;2.30;99.90;;;;;;5008177;28;20699;-61
2023/12/03 12:01:09;;;;;;;10.70;9.37;;;2.30;99.90;;;;;;5012542;28;20251;-60
2023/12/03 12:03:36;;;;;;;10.93;8.83;;;2.20;99.90;;;;;;5015503;28;20205;-61
2023/12/03 12:06:03;;;;;;;13.20;9.23;;;1.80;99.90;;;;;;5006586;28;20288;-61
2023/12/03 12:08:31;;;;;;;11.67;9.97;;;1.80;99.90;;;;;;5014050;28;20223;-60
2023/12/03 12:10:58;;;;;;;9.23;8.27;;;1.70;99.90;;;;;;5017641;28;20225;-61
2023/12/03 12:13:25;;;;;;;9.27;7.67;;;1.80;99.90;;;;;;5001891;28;20283;-60
2023/12/03 12:15:55;;;;;;;8.37;7.23;;;1.90;99.90;;;;;;5013865;28;20713;-60
2023/12/03 12:18:23;;;;;;;9.67;7.53;;;1.80;99.90;;;;;;4998904;28;20338;-60
2023/12/03 12:20:49;;;;;;;11.57;8.37;;;1.80;99.90;;;;;;5007828;28;20651;-60
2023/12/03 12:23:16;;;;;;;8.43;7.47;;;1.80;99.90;;;;;;5008882;28;20231;-60
2023/12/03 12:25:43;;;;;;;10.73;8.17;;;1.90;99.90;;;;;;5006225;28;20201;-60
2023/12/03 12:28:10;;;;;;;8.17;7.20;;;1.90;99.90;;;;;;5014241;28;20233;-60
2023/12/03 12:30:40;;;;;;;7.30;6.47;;;1.80;99.90;;;;;;5011326;28;20680;-60
2023/12/03 12:33:09;;;;;;;9.40;7.60;;;1.90;99.90;;;;;;5013208;28;20735;-60
2023/12/03 12:35:37;;;;;;;6.67;6.07;;;1.90;99.90;;;;;;5013655;28;20260;-61
2023/12/03 12:38:06;;;;;;;7.13;6.47;;;1.80;99.90;;;;;;5009765;28;20244;-60
2023/12/03 12:40:37;;;;;;;8.50;6.97;;;1.80;99.90;;;;;;5014290;28;20221;-61